Time;durP1;ratioP1;P1;durP2;ratioP2;P2;SDS_P1;SDS_P2;PMS_P1;PMS_P2;Temp;Humidity;BMP_temperature;BMP_pressure;BME280_temperature;BME280_humidity;BME280_pressure;Samples;Min_cycle;Max_cycle;Signal;HPM_P1;HPM_P2
2023/09/05 00:00:05;;;;;;;7.97;5.55;;;16.50;99.90;;;;;;5000988;28;20030;-77
2023/09/05 00:02:31;;;;;;;9.05;6.32;;;16.50;99.90;;;;;;5001382;28;20026;-79
2023/09/05 00:04:57;;;;;;;10.10;6.35;;;16.50;99.90;;;;;;5001443;28;20037;-77
2023/09/05 00:07:23;;;;;;;8.38;6.07;;;16.50;99.90;;;;;;5001897;28;20030;-78
2023/09/05 00:09:49;;;;;;;10.40;6.43;;;16.50;99.90;;;;;;5001368;28;20037;-78
2023/09/05 00:12:15;;;;;;;11.07;6.70;;;16.50;99.90;;;;;;5002480;28;20018;-78
2023/09/05 00:14:41;;;;;;;12.45;6.22;;;16.40;99.90;;;;;;5001618;28;20459;-78
2023/09/05 00:17:06;;;;;;;9.57;6.90;;;16.40;99.90;;;;;;5002669;28;20053;-78
2023/09/05 00:19:32;;;;;;;11.07;6.60;;;16.40;99.90;;;;;;5002256;28;20022;-78
2023/09/05 00:21:58;;;;;;;8.35;6.13;;;16.40;99.90;;;;;;5002968;28;20030;-78
2023/09/05 00:24:27;;;;;;;16.40;6.75;;;16.40;99.90;;;;;;5001410;28;20058;-77
2023/09/05 00:26:54;;;;;;;9.60;6.57;;;16.40;99.90;;;;;;5002159;28;20061;-77
2023/09/05 00:29:20;;;;;;;10.73;6.93;;;16.40;99.90;;;;;;5002474;28;20108;-78
2023/09/05 00:31:46;;;;;;;11.90;7.00;;;16.30;99.90;;;;;;5001045;28;20063;-79
2023/09/05 00:34:13;;;;;;;10.50;6.90;;;16.40;99.90;;;;;;5000328;28;20102;-78
2023/09/05 00:36:39;;;;;;;12.40;6.80;;;16.30;99.90;;;;;;5000977;28;20027;-78
2023/09/05 00:39:05;;;;;;;11.02;7.03;;;16.30;99.90;;;;;;5000307;28;20050;-77
2023/09/05 00:41:32;;;;;;;9.82;7.45;;;16.30;99.90;;;;;;5000732;28;20046;-79
2023/09/05 00:44:01;;;;;;;10.70;7.28;;;16.30;99.90;;;;;;5000577;28;20391;-79
2023/09/05 00:46:31;;;;;;;10.20;7.15;;;16.20;99.90;;;;;;5000734;28;20399;-77
2023/09/05 00:48:57;;;;;;;10.57;7.22;;;16.10;99.90;;;;;;5000638;28;20026;-78
2023/09/05 00:51:25;;;;;;;13.43;7.05;;;16.10;99.90;;;;;;5001304;28;20022;-77
2023/09/05 00:53:51;;;;;;;12.20;7.72;;;16.10;99.90;;;;;;5000278;28;20026;-78
2023/09/05 00:56:17;;;;;;;10.00;7.10;;;16.10;99.90;;;;;;5000620;28;20069;-78
2023/09/05 00:58:42;;;;;;;11.25;6.95;;;16.00;99.90;;;;;;5000563;28;20022;-78
2023/09/05 01:01:08;;;;;;;12.07;7.40;;;16.00;99.90;;;;;;5001666;28;20026;-80
2023/09/05 01:03:33;;;;;;;12.52;7.30;;;16.00;99.90;;;;;;5000843;28;20105;-78
2023/09/05 01:06:05;;;;;;;13.75;7.45;;;16.00;99.90;;;;;;5000712;28;20122;-78
2023/09/05 01:08:44;;;;;;;12.18;6.80;;;16.00;99.90;;;;;;5001603;28;20026;-79
2023/09/05 01:11:14;;;;;;;11.55;6.95;;;16.00;99.90;;;;;;5001402;28;20121;-78
2023/09/05 01:13:41;;;;;;;9.68;7.43;;;15.90;99.90;;;;;;5000459;28;20022;-78
2023/09/05 01:16:08;;;;;;;12.00;7.43;;;15.90;99.90;;;;;;5001796;28;20118;-78
2023/09/05 01:18:34;;;;;;;10.75;7.15;;;15.90;99.90;;;;;;4999660;28;20038;-78
2023/09/05 01:21:10;;;;;;;9.95;7.25;;;15.90;99.90;;;;;;5000473;28;20052;-77
2023/09/05 01:23:44;;;;;;;12.63;7.88;;;15.90;99.90;;;;;;5000034;28;20070;-78
2023/09/05 01:26:10;;;;;;;;;;;15.90;99.90;;;;;;5000551;28;20027;-79
2023/09/05 01:28:41;;;;;;;9.13;6.85;;;15.80;99.90;;;;;;5000247;28;19945;-79
2023/09/05 01:31:09;;;;;;;12.25;7.78;;;15.80;99.90;;;;;;5001123;28;20503;-78
2023/09/05 01:33:40;;;;;;;11.05;7.75;;;15.80;99.90;;;;;;5001309;28;20074;-77
2023/09/05 01:36:07;;;;;;;11.82;7.40;;;15.80;99.90;;;;;;5016284;28;20049;-78
2023/09/05 01:38:33;;;;;;;12.35;8.10;;;15.80;99.90;;;;;;5000233;28;20400;-78
2023/09/05 01:40:59;;;;;;;11.73;7.90;;;15.80;99.90;;;;;;5001208;28;20042;-77
2023/09/05 01:43:25;;;;;;;10.25;7.75;;;15.80;99.90;;;;;;5001585;28;20061;-78
2023/09/05 01:45:50;;;;;;;15.45;8.05;;;15.70;99.90;;;;;;5001204;28;20049;-78
2023/09/05 01:48:16;;;;;;;11.38;8.25;;;15.70;99.90;;;;;;5000522;28;20015;-77
2023/09/05 01:50:42;;;;;;;9.93;7.95;;;15.70;99.90;;;;;;4999972;28;20022;-78
2023/09/05 01:53:07;;;;;;;10.93;7.95;;;15.60;99.90;;;;;;5000071;28;20058;-78
2023/09/05 01:55:33;;;;;;;12.30;8.05;;;15.60;99.90;;;;;;5000242;28;20058;-78
2023/09/05 01:57:58;;;;;;;11.60;7.82;;;15.60;99.90;;;;;;5001348;28;20023;-78
2023/09/05 02:00:24;;;;;;;12.30;8.18;;;15.50;99.90;;;;;;5000416;28;20080;-78
2023/09/05 02:02:50;;;;;;;13.38;8.75;;;15.50;99.90;;;;;;5000464;28;20023;-79
2023/09/05 02:05:15;;;;;;;15.30;9.57;;;15.40;99.90;;;;;;4999841;28;20037;-78
2023/09/05 02:07:41;;;;;;;11.40;8.38;;;15.40;99.90;;;;;;5001175;28;20808;-78
2023/09/05 02:10:07;;;;;;;11.65;8.32;;;15.40;99.90;;;;;;5000055;28;20023;-78
2023/09/05 02:12:35;;;;;;;12.98;8.15;;;15.30;99.90;;;;;;5001351;28;20052;-78
2023/09/05 02:15:02;;;;;;;12.23;8.18;;;15.30;99.90;;;;;;5000030;28;20035;-78
2023/09/05 02:17:31;;;;;;;13.20;9.02;;;15.30;99.90;;;;;;5001255;28;20046;-78
2023/09/05 02:20:00;;;;;;;13.38;8.95;;;15.30;99.90;;;;;;4999951;28;20121;-79
2023/09/05 02:22:25;;;;;;;12.05;9.15;;;15.30;99.90;;;;;;5003690;28;20033;-79
2023/09/05 02:24:51;;;;;;;11.75;8.60;;;15.20;99.90;;;;;;5003679;28;20018;-77
2023/09/05 02:27:16;;;;;;;13.77;9.27;;;15.20;99.90;;;;;;5003125;28;20030;-77
2023/09/05 02:29:42;;;;;;;13.27;8.98;;;15.20;99.90;;;;;;5003457;28;20023;-78
2023/09/05 02:32:08;;;;;;;12.98;8.90;;;15.20;99.90;;;;;;5004688;28;20026;-77
2023/09/05 02:34:33;;;;;;;18.00;9.32;;;15.20;99.90;;;;;;5002646;28;20046;-78
2023/09/05 02:37:00;;;;;;;12.60;9.10;;;15.20;99.90;;;;;;5003142;28;20022;-78
2023/09/05 02:39:26;;;;;;;13.77;8.90;;;15.20;99.90;;;;;;5004439;28;20022;-78
2023/09/05 02:41:52;;;;;;;12.40;8.93;;;15.20;99.90;;;;;;5004571;28;20415;-78
2023/09/05 02:44:18;;;;;;;13.55;9.02;;;15.20;99.90;;;;;;5003138;28;20025;-78
2023/09/05 02:46:44;;;;;;;12.32;9.20;;;15.10;99.90;;;;;;5002806;28;20033;-76
2023/09/05 02:49:10;;;;;;;15.18;8.95;;;15.10;99.90;;;;;;5002280;28;20088;-77
2023/09/05 02:51:35;;;;;;;15.90;8.82;;;15.20;99.90;;;;;;5002947;28;20030;-78
2023/09/05 02:54:01;;;;;;;14.80;9.27;;;15.10;99.90;;;;;;5002687;28;20030;-77
2023/09/05 02:56:26;;;;;;;13.75;9.40;;;15.10;99.90;;;;;;5004302;28;20031;-77
2023/09/05 02:58:52;;;;;;;12.93;8.95;;;15.10;99.90;;;;;;5002576;28;20022;-77
2023/09/05 03:01:18;;;;;;;13.57;9.20;;;15.10;99.90;;;;;;5003696;28;20042;-77
2023/09/05 03:03:43;;;;;;;12.60;9.52;;;15.10;99.90;;;;;;5003925;28;20030;-77
2023/09/05 03:06:10;;;;;;;13.60;9.20;;;15.10;99.90;;;;;;5004026;28;20041;-78
2023/09/05 03:08:37;;;;;;;13.07;8.85;;;15.10;99.90;;;;;;5001457;28;20038;-77
2023/09/05 03:11:03;;;;;;;11.88;9.18;;;15.10;99.90;;;;;;5002514;28;20030;-78
2023/09/05 03:13:28;;;;;;;15.23;9.95;;;15.10;99.90;;;;;;5003869;28;20019;-79
2023/09/05 03:15:54;;;;;;;13.93;9.35;;;15.00;99.90;;;;;;5002467;28;20022;-79
2023/09/05 03:18:19;;;;;;;14.13;9.60;;;15.00;99.90;;;;;;5003761;28;20124;-78
2023/09/05 03:20:46;;;;;;;13.57;9.02;;;15.00;99.90;;;;;;5002458;28;20030;-78
2023/09/05 03:23:12;;;;;;;12.23;9.18;;;15.00;99.90;;;;;;5001928;28;20026;-78
2023/09/05 03:25:38;;;;;;;14.50;9.48;;;15.00;99.90;;;;;;5002256;28;20038;-78
2023/09/05 03:28:04;;;;;;;13.88;9.57;;;15.00;99.90;;;;;;5003561;28;20034;-77
2023/09/05 03:30:30;;;;;;;14.95;9.68;;;14.90;99.90;;;;;;5001912;28;20034;-77
2023/09/05 03:32:56;;;;;;;14.32;9.60;;;14.90;99.90;;;;;;5002893;28;20030;-78
2023/09/05 03:35:22;;;;;;;14.57;9.70;;;14.90;99.90;;;;;;5003160;28;20077;-78
2023/09/05 03:37:48;;;;;;;18.63;10.50;;;14.90;99.90;;;;;;5003274;28;20027;-77
2023/09/05 03:40:13;;;;;;;16.77;10.23;;;14.90;99.90;;;;;;5001988;28;20050;-78
2023/09/05 03:42:40;;;;;;;15.95;9.57;;;14.90;99.90;;;;;;5001876;28;20046;-78
2023/09/05 03:45:06;;;;;;;14.88;11.00;;;14.90;99.90;;;;;;5002823;28;20070;-78
2023/09/05 03:47:32;;;;;;;14.38;9.57;;;14.90;99.90;;;;;;5001903;28;20049;-77
2023/09/05 03:49:58;;;;;;;16.08;9.65;;;14.90;99.90;;;;;;5001892;28;20467;-78
2023/09/05 03:52:24;;;;;;;12.98;9.70;;;14.80;99.90;;;;;;5001757;28;20034;-78
2023/09/05 03:54:49;;;;;;;17.42;9.82;;;14.80;99.90;;;;;;5001849;28;20034;-77
2023/09/05 03:57:16;;;;;;;13.60;9.65;;;14.90;99.90;;;;;;5001211;28;20038;-78
2023/09/05 03:59:41;;;;;;;15.32;9.90;;;14.80;99.90;;;;;;5001319;28;20022;-78
2023/09/05 04:02:07;;;;;;;12.18;9.10;;;14.80;99.90;;;;;;5001083;28;20097;-78
2023/09/05 04:04:33;;;;;;;13.82;10.27;;;14.80;99.90;;;;;;5001728;28;20027;-78
2023/09/05 04:06:58;;;;;;;13.77;9.98;;;14.80;99.90;;;;;;5002747;28;20025;-78
2023/09/05 04:09:24;;;;;;;14.70;9.52;;;14.80;99.90;;;;;;5001315;28;20086;-77
2023/09/05 04:11:50;;;;;;;16.23;10.52;;;14.80;99.90;;;;;;5000716;28;20030;-78
2023/09/05 04:14:15;;;;;;;15.35;9.48;;;14.80;99.90;;;;;;5000887;28;20038;-77
2023/09/05 04:16:42;;;;;;;15.85;10.23;;;14.70;99.90;;;;;;5002804;28;20041;-78
2023/09/05 04:19:08;;;;;;;17.40;9.95;;;14.80;99.90;;;;;;5002319;28;20037;-77
2023/09/05 04:21:34;;;;;;;14.57;9.63;;;14.70;99.90;;;;;;5000749;28;20042;-78
2023/09/05 04:23:59;;;;;;;15.98;9.88;;;14.70;99.90;;;;;;5002129;28;20027;-78
2023/09/05 04:26:25;;;;;;;13.45;10.15;;;14.70;99.90;;;;;;5001123;28;20041;-78
2023/09/05 04:28:51;;;;;;;14.88;10.68;;;14.60;99.90;;;;;;5000673;28;20023;-77
2023/09/05 04:31:18;;;;;;;16.33;10.10;;;14.60;99.90;;;;;;5002212;28;20022;-78
2023/09/05 04:33:44;;;;;;;13.82;9.90;;;14.50;99.90;;;;;;5000032;28;20030;-78
2023/09/05 04:36:10;;;;;;;14.57;10.57;;;14.50;99.90;;;;;;5001027;28;20443;-73
2023/09/05 04:38:37;;;;;;;15.70;10.43;;;14.50;99.90;;;;;;4999466;28;20034;-74
2023/09/05 04:41:02;;;;;;;18.75;10.98;;;14.50;99.90;;;;;;5001395;28;20072;-73
2023/09/05 04:43:29;;;;;;;15.35;10.20;;;14.50;99.90;;;;;;4999214;28;20085;-74
2023/09/05 04:45:56;;;;;;;15.02;10.50;;;14.40;99.90;;;;;;4999583;28;20079;-74
2023/09/05 04:48:22;;;;;;;15.40;10.77;;;14.50;99.90;;;;;;4999278;28;20066;-74
2023/09/05 04:50:48;;;;;;;15.52;10.32;;;14.50;99.90;;;;;;5002063;28;20022;-74
2023/09/05 04:53:14;;;;;;;15.25;10.48;;;14.40;99.90;;;;;;5001159;28;20018;-74
2023/09/05 04:55:44;;;;;;;14.02;10.65;;;14.40;99.90;;;;;;5000865;28;20033;-74
2023/09/05 04:58:12;;;;;;;18.02;11.30;;;14.50;99.90;;;;;;5001989;28;20046;-75
2023/09/05 05:00:38;;;;;;;16.90;11.00;;;14.50;99.90;;;;;;5000516;28;20031;-76
2023/09/05 05:03:04;;;;;;;17.48;11.20;;;14.50;99.90;;;;;;4999438;28;20022;-74
2023/09/05 05:05:30;;;;;;;17.42;11.15;;;14.50;99.90;;;;;;5002158;28;20030;-74
2023/09/05 05:07:55;;;;;;;16.10;9.90;;;14.50;99.90;;;;;;5001331;28;20050;-74
2023/09/05 05:10:21;;;;;;;15.88;9.57;;;14.50;99.90;;;;;;5001817;28;20034;-74
2023/09/05 05:12:47;;;;;;;14.43;9.90;;;14.50;99.90;;;;;;5002225;28;20097;-72
2023/09/05 05:15:13;;;;;;;15.68;10.25;;;14.50;99.90;;;;;;5002358;28;20088;-74
2023/09/05 05:17:39;;;;;;;15.07;10.10;;;14.60;99.90;;;;;;5001592;28;20031;-73
2023/09/05 05:20:05;;;;;;;19.48;10.52;;;14.50;99.90;;;;;;5001612;28;20387;-73
2023/09/05 05:22:32;;;;;;;15.55;10.55;;;14.50;99.90;;;;;;5002132;28;20019;-74
2023/09/05 05:24:58;;;;;;;15.43;9.65;;;14.60;99.90;;;;;;5002608;28;20026;-73
2023/09/05 05:27:25;;;;;;;16.25;10.73;;;14.60;99.90;;;;;;5000738;28;20065;-73
2023/09/05 05:29:51;;;;;;;17.27;10.15;;;14.60;99.90;;;;;;5000886;28;20106;-73
2023/09/05 05:32:17;;;;;;;13.27;9.50;;;14.70;99.90;;;;;;4997786;28;20022;-73
2023/09/05 05:34:43;;;;;;;13.35;10.50;;;14.60;99.90;;;;;;5000027;28;20101;-73
2023/09/05 05:37:09;;;;;;;17.80;10.40;;;14.70;99.90;;;;;;4998609;28;20026;-73
2023/09/05 05:39:34;;;;;;;14.50;9.70;;;14.70;99.90;;;;;;4997589;28;20035;-75
2023/09/05 05:42:00;;;;;;;17.90;10.25;;;14.70;99.90;;;;;;5001379;28;20045;-74
2023/09/05 05:44:26;;;;;;;14.35;10.13;;;14.80;99.90;;;;;;5000667;28;20050;-74
2023/09/05 05:46:56;;;;;;;15.02;10.15;;;14.80;99.90;;;;;;5002175;28;20030;-73
2023/09/05 05:49:23;;;;;;;15.88;10.00;;;14.90;99.90;;;;;;5000151;28;20468;-73
2023/09/05 05:51:50;;;;;;;15.85;9.98;;;14.90;99.90;;;;;;5001185;28;20042;-76
2023/09/05 05:54:16;;;;;;;13.50;10.02;;;14.90;99.90;;;;;;5002267;28;20014;-75
2023/09/05 05:56:41;;;;;;;15.55;9.70;;;15.00;99.90;;;;;;5000896;28;20049;-74
2023/09/05 05:59:07;;;;;;;14.98;9.65;;;15.10;99.90;;;;;;5004677;28;20034;-73
2023/09/05 06:01:34;;;;;;;16.35;10.10;;;15.10;99.90;;;;;;5006020;28;20030;-73
2023/09/05 06:03:59;;;;;;;12.88;9.10;;;15.10;99.90;;;;;;5002626;28;20593;-74
2023/09/05 06:06:25;;;;;;;16.20;9.85;;;15.20;99.90;;;;;;5002571;28;20037;-74
2023/09/05 06:08:50;;;;;;;18.65;9.50;;;15.20;99.90;;;;;;5002935;28;20036;-76
2023/09/05 06:11:16;;;;;;;14.43;9.88;;;15.20;99.90;;;;;;5002482;28;20719;-75
2023/09/05 06:13:42;;;;;;;15.48;10.48;;;15.20;99.90;;;;;;5002630;28;20026;-75
2023/09/05 06:16:08;;;;;;;17.42;9.88;;;15.20;99.90;;;;;;5004666;28;20030;-74
2023/09/05 06:18:33;;;;;;;13.45;9.55;;;15.30;99.90;;;;;;5002779;28;20019;-74
2023/09/05 06:20:59;;;;;;;16.27;10.43;;;15.30;99.90;;;;;;5003237;28;20129;-75
2023/09/05 06:23:24;;;;;;;20.20;10.30;;;15.30;99.90;;;;;;5005324;28;20468;-74
2023/09/05 06:25:50;;;;;;;13.55;9.23;;;15.30;99.90;;;;;;5004927;28;20030;-74
2023/09/05 06:28:16;;;;;;;13.88;9.65;;;15.40;99.90;;;;;;5005027;28;20410;-74
2023/09/05 06:30:42;;;;;;;16.00;9.55;;;15.40;99.90;;;;;;5005139;28;20506;-75
2023/09/05 06:33:08;;;;;;;14.65;10.15;;;15.40;99.90;;;;;;5004521;28;20086;-74
2023/09/05 06:35:36;;;;;;;14.38;9.48;;;15.50;99.90;;;;;;5004773;28;20070;-75
2023/09/05 06:38:02;;;;;;;16.92;9.45;;;15.50;99.90;;;;;;5003375;28;20029;-74
2023/09/05 06:40:28;;;;;;;15.00;10.27;;;15.60;99.90;;;;;;5003488;28;20054;-74
2023/09/05 06:42:53;;;;;;;13.57;9.48;;;15.70;99.90;;;;;;5003882;28;20026;-74
2023/09/05 06:45:20;;;;;;;16.48;10.25;;;15.70;99.90;;;;;;5003272;28;20026;-74
2023/09/05 06:47:46;;;;;;;12.15;9.00;;;15.80;99.90;;;;;;5004875;28;20487;-75
2023/09/05 06:50:12;;;;;;;13.23;9.40;;;15.80;99.90;;;;;;5004798;28;20065;-75
2023/09/05 06:52:38;;;;;;;13.85;9.75;;;15.90;99.90;;;;;;5003344;28;20027;-74
2023/09/05 06:55:04;;;;;;;18.95;10.18;;;15.90;99.90;;;;;;5004544;28;20018;-76
2023/09/05 06:57:30;;;;;;;13.25;9.63;;;15.90;99.90;;;;;;5004867;28;20491;-74
2023/09/05 06:59:56;;;;;;;16.35;9.80;;;16.00;99.90;;;;;;5001543;28;20041;-77
2023/09/05 07:02:21;;;;;;;12.55;9.23;;;16.10;99.90;;;;;;4999984;28;20031;-75
2023/09/05 07:04:47;;;;;;;20.33;10.18;;;16.20;99.90;;;;;;5001839;28;20027;-75
2023/09/05 07:07:13;;;;;;;13.35;9.07;;;16.30;99.90;;;;;;5002040;28;20041;-74
2023/09/05 07:09:38;;;;;;;13.77;9.35;;;16.30;99.90;;;;;;5001478;28;20022;-73
2023/09/05 07:12:06;;;;;;;16.35;9.00;;;16.40;99.90;;;;;;5003902;28;20121;-74
2023/09/05 07:14:32;;;;;;;14.60;9.38;;;16.50;99.90;;;;;;5002324;28;20022;-75
2023/09/05 07:16:57;;;;;;;15.73;8.63;;;16.60;99.90;;;;;;5002427;28;20041;-74
2023/09/05 07:19:23;;;;;;;12.73;8.73;;;16.70;99.90;;;;;;5002570;28;20038;-73
2023/09/05 07:21:48;;;;;;;17.63;8.85;;;16.80;99.90;;;;;;5002648;28;20035;-74
2023/09/05 07:24:15;;;;;;;16.15;8.10;;;16.90;99.90;;;;;;5004255;28;20022;-77
2023/09/05 07:26:41;;;;;;;13.57;8.80;;;17.00;99.90;;;;;;5002780;28;20034;-74
2023/09/05 07:29:09;;;;;;;10.73;8.20;;;17.20;99.90;;;;;;5002279;28;20018;-74
2023/09/05 07:31:35;;;;;;;12.02;7.78;;;17.30;99.90;;;;;;5002570;28;20042;-74
2023/09/05 07:34:01;;;;;;;11.45;8.10;;;17.40;99.90;;;;;;5001969;28;20050;-74
2023/09/05 07:36:28;;;;;;;13.48;8.10;;;17.50;99.90;;;;;;5002117;28;20046;-74
2023/09/05 07:38:54;;;;;;;12.63;8.07;;;17.50;99.90;;;;;;5003442;28;20031;-75
2023/09/05 07:41:20;;;;;;;10.55;8.18;;;17.60;99.90;;;;;;5003825;28;20121;-75
2023/09/05 07:43:45;;;;;;;12.70;8.13;;;17.70;99.90;;;;;;5001291;28;20522;-74
2023/09/05 07:46:11;;;;;;;13.00;7.10;;;17.80;99.90;;;;;;5002122;28;20034;-74
2023/09/05 07:48:37;;;;;;;9.07;6.70;;;17.90;99.90;;;;;;5002484;28;20026;-76
2023/09/05 07:51:05;;;;;;;11.88;7.30;;;18.00;99.90;;;;;;5000871;28;20054;-74
2023/09/05 07:53:42;;;;;;;10.50;6.55;;;18.00;99.90;;;;;;5002457;28;20065;-75
2023/09/05 07:56:08;;;;;;;11.50;6.78;;;18.10;99.90;;;;;;5000389;28;20057;-75
2023/09/05 07:58:33;;;;;;;12.45;6.90;;;18.20;99.90;;;;;;5002950;28;20443;-74
2023/09/05 08:00:59;;;;;;;11.65;6.57;;;18.20;99.90;;;;;;5002095;28;20061;-74
2023/09/05 08:03:26;;;;;;;9.70;6.30;;;18.20;99.90;;;;;;4996398;28;20057;-73
2023/09/05 08:05:56;;;;;;;15.27;6.30;;;18.20;99.90;;;;;;5000175;28;20113;-74
2023/09/05 08:08:22;;;;;;;9.98;6.45;;;18.30;99.90;;;;;;5001828;28;20030;-74
2023/09/05 08:10:48;;;;;;;10.90;6.47;;;18.30;99.90;;;;;;5001709;28;20042;-74
2023/09/05 08:13:15;;;;;;;10.85;6.57;;;18.50;99.90;;;;;;5003183;28;20018;-74
2023/09/05 08:15:43;;;;;;;9.90;5.80;;;18.60;99.90;;;;;;5000420;28;20439;-74
2023/09/05 08:18:10;;;;;;;9.52;6.25;;;18.70;99.90;;;;;;4997034;28;20158;-76
2023/09/05 08:20:36;;;;;;;9.32;5.95;;;18.90;99.90;;;;;;5001504;28;20035;-74
2023/09/05 08:23:02;;;;;;;8.32;5.85;;;19.10;99.90;;;;;;5002420;28;20041;-75
2023/09/05 08:25:28;;;;;;;9.63;5.68;;;19.20;99.90;;;;;;5000470;28;20027;-75
2023/09/05 08:27:54;;;;;;;11.50;6.22;;;19.40;99.90;;;;;;5002082;28;20853;-75
2023/09/05 08:30:24;;;;;;;8.75;5.90;;;19.50;99.90;;;;;;4999538;28;20042;-75
2023/09/05 08:32:52;;;;;;;8.55;5.93;;;19.60;99.90;;;;;;4999657;28;20026;-75
2023/09/05 08:35:18;;;;;;;10.45;5.63;;;19.80;99.90;;;;;;5001232;28;20526;-74
2023/09/05 08:37:43;;;;;;;9.90;5.63;;;19.90;99.90;;;;;;5001402;28;20046;-73
2023/09/05 08:40:10;;;;;;;8.77;5.43;;;20.00;99.90;;;;;;5002451;28;20029;-75
2023/09/05 08:42:37;;;;;;;9.32;5.97;;;20.10;99.90;;;;;;5000984;28;20117;-73
2023/09/05 08:45:04;;;;;;;7.30;5.57;;;20.20;99.90;;;;;;5001182;28;20084;-73
2023/09/05 08:47:30;;;;;;;10.95;5.82;;;20.30;99.90;;;;;;5002413;28;20030;-76
2023/09/05 08:49:59;;;;;;;8.65;5.70;;;20.40;99.90;;;;;;5001008;28;20022;-75
2023/09/05 08:52:37;;;;;;;11.93;5.70;;;20.40;99.90;;;;;;5002040;28;20373;-76
2023/09/05 08:55:03;;;;;;;11.85;6.20;;;20.60;99.90;;;;;;5002342;28;20391;-76
2023/09/05 08:57:29;;;;;;;13.23;5.57;;;20.70;99.90;;;;;;5001999;28;20031;-76
2023/09/05 08:59:56;;;;;;;6.93;5.10;;;20.70;99.90;;;;;;5002239;28;20034;-77
2023/09/05 09:02:21;;;;;;;9.57;5.43;;;20.90;99.90;;;;;;4999079;28;20123;-75
2023/09/05 09:04:57;;;;;;;8.90;5.32;;;20.90;99.90;;;;;;5000891;28;20050;-84
2023/09/05 09:07:27;;;;;;;9.77;5.22;;;21.00;99.90;;;;;;4999426;28;20046;-79
2023/09/05 09:09:54;;;;;;;5.97;5.10;;;21.10;99.90;;;;;;4998907;28;20054;-74
2023/09/05 09:12:31;;;;;;;6.65;4.97;;;21.20;99.90;;;;;;5000489;28;20027;-75
2023/09/05 09:15:09;;;;;;;8.02;4.25;;;21.30;99.90;;;;;;4999583;28;20042;-75
2023/09/05 09:17:35;;;;;;;9.38;5.07;;;21.40;99.90;;;;;;5000990;28;20026;-77
2023/09/05 09:20:06;;;;;;;7.43;5.30;;;21.40;99.90;;;;;;5001503;28;20150;-76
2023/09/05 09:22:31;;;;;;;7.70;4.57;;;21.50;99.90;;;;;;4999427;28;20030;-75
2023/09/05 09:24:57;;;;;;;7.65;4.18;;;21.60;99.90;;;;;;4997841;28;20053;-77
2023/09/05 09:27:23;;;;;;;9.50;4.40;;;21.60;99.90;;;;;;4994971;28;20113;-75
2023/09/05 09:29:55;;;;;;;6.00;4.13;;;21.70;99.90;;;;;;4998385;28;20066;-76
2023/09/05 09:32:22;;;;;;;5.60;3.70;;;21.80;99.90;;;;;;4998375;28;20141;-73
2023/09/05 09:34:51;;;;;;;8.30;4.55;;;21.90;99.90;;;;;;5002118;28;20054;-75
2023/09/05 09:37:27;;;;;;;8.50;4.28;;;22.00;99.90;;;;;;5005109;28;20034;-75
2023/09/05 09:40:00;;;;;;;7.50;4.57;;;22.00;99.90;;;;;;5002547;28;20049;-78
2023/09/05 09:42:27;;;;;;;10.32;4.45;;;22.10;99.90;;;;;;5004906;28;20037;-75
2023/09/05 09:44:52;;;;;;;7.78;4.38;;;22.20;99.90;;;;;;5004356;28;20054;-74
2023/09/05 09:47:18;;;;;;;7.35;3.70;;;22.30;99.90;;;;;;5002531;28;20026;-79
2023/09/05 09:49:49;;;;;;;5.93;3.40;;;22.40;99.90;;;;;;5002569;28;20034;-73
2023/09/05 09:52:17;;;;;;;5.45;3.85;;;22.50;99.90;;;;;;5003797;28;20088;-74
2023/09/05 09:54:48;;;;;;;5.88;4.00;;;22.60;99.90;;;;;;5005251;28;20023;-74
2023/09/05 09:57:18;;;;;;;7.25;3.75;;;22.70;99.90;;;;;;5004948;28;20030;-77
2023/09/05 09:59:49;;;;;;;8.38;4.38;;;22.70;99.90;;;;;;5005512;28;20045;-73
2023/09/05 10:02:16;;;;;;;9.88;4.20;;;22.90;99.90;;;;;;5003597;28;20472;-77
2023/09/05 10:04:43;;;;;;;7.20;4.30;;;23.00;99.90;;;;;;5005302;28;20026;-82
2023/09/05 10:07:15;;;;;;;10.63;4.07;;;23.10;99.90;;;;;;5004143;28;20026;-73
2023/09/05 10:09:45;;;;;;;9.30;4.55;;;23.10;99.90;;;;;;5003520;28;20031;-73
2023/09/05 10:12:11;;;;;;;9.68;4.20;;;23.20;99.90;;;;;;5003881;28;20047;-76
2023/09/05 10:14:38;;;;;;;6.88;4.03;;;23.30;99.90;;;;;;5002950;28;20029;-74
2023/09/05 10:17:04;;;;;;;10.93;4.88;;;23.30;99.90;;;;;;5002410;28;20033;-73
2023/09/05 10:19:32;;;;;;;7.60;4.90;;;23.40;99.90;;;;;;5003632;28;20042;-74
2023/09/05 10:21:59;;;;;;;7.35;3.90;;;23.40;99.90;;;;;;5004071;28;20035;-74
2023/09/05 10:24:27;;;;;;;8.05;3.80;;;23.50;99.90;;;;;;5003887;28;20061;-74
2023/09/05 10:26:53;;;;;;;5.35;3.75;;;23.50;99.90;;;;;;5003669;28;20030;-78
2023/09/05 10:29:45;;;;;;;9.73;4.43;;;23.60;99.90;;;;;;5004045;28;20545;-73
2023/09/05 10:32:14;;;;;;;6.95;4.28;;;23.70;99.90;;;;;;5003832;28;20042;-76
2023/09/05 10:34:48;;;;;;;10.10;4.85;;;23.80;99.90;;;;;;5004418;28;20034;-76
2023/09/05 10:37:22;;;;;;;7.15;4.20;;;23.90;99.90;;;;;;5004775;28;20015;-76
2023/09/05 10:39:49;;;;;;;6.43;4.30;;;24.00;99.90;;;;;;5002860;28;20065;-74
2023/09/05 10:42:16;;;;;;;10.07;4.40;;;24.10;99.90;;;;;;5003528;28;20022;-76
2023/09/05 10:44:47;;;;;;;5.25;3.28;;;24.20;99.90;;;;;;5004549;28;20411;-75
2023/09/05 10:47:27;;;;;;;8.75;3.50;;;24.30;99.90;;;;;;5003362;28;20025;-74
2023/09/05 10:49:59;;;;;;;17.88;4.43;;;24.40;99.90;;;;;;5004693;28;20086;-77
2023/09/05 10:52:29;;;;;;;8.32;3.90;;;24.50;99.90;;;;;;5003472;28;20034;-79
2023/09/05 10:54:56;;;;;;;7.93;4.03;;;24.60;99.90;;;;;;5004962;28;20458;-75
2023/09/05 10:57:39;;;;;;;5.28;3.58;;;24.70;99.90;;;;;;5004698;28;20026;-74
2023/09/05 11:00:14;;;;;;;6.03;3.45;;;24.70;99.90;;;;;;5003987;28;20023;-82
2023/09/05 11:02:40;;;;;;;7.60;3.90;;;24.80;99.90;;;;;;5003961;28;20052;-74
2023/09/05 11:05:18;;;;;;;5.63;3.35;;;24.90;99.90;;;;;;5004469;28;20022;-75
2023/09/05 11:07:55;;;;;;;8.40;3.10;;;25.00;99.90;;;;;;5002612;28;20027;-75
2023/09/05 11:10:37;;;;;;;6.93;3.10;;;25.00;99.90;;;;;;5002486;28;20081;-75
2023/09/05 11:13:11;;;;;;;6.55;4.13;;;25.20;99.90;;;;;;5004357;28;20026;-80
2023/09/05 11:15:43;;;;;;;5.57;3.20;;;25.30;99.90;;;;;;5000005;28;20026;-74
2023/09/05 11:18:14;;;;;;;7.47;3.30;;;25.40;99.90;;;;;;5003985;28;20130;-74
2023/09/05 11:20:47;;;;;;;6.85;3.58;;;25.50;99.90;;;;;;5002371;28;20037;-75
2023/09/05 11:23:18;;;;;;;6.13;2.92;;;25.60;99.90;;;;;;5002885;28;20030;-75
2023/09/05 11:25:56;;;;;;;4.85;3.30;;;25.60;99.90;;;;;;5003923;28;20061;-74
2023/09/05 11:28:23;;;;;;;6.72;3.20;;;25.80;99.90;;;;;;5003588;28;20446;-81
2023/09/05 11:30:52;;;;;;;6.05;3.50;;;25.90;99.90;;;;;;5000741;28;20037;-77
2023/09/05 11:33:19;;;;;;;7.35;2.88;;;26.00;99.90;;;;;;5001177;28;20018;-75
2023/09/05 11:35:46;;;;;;;3.63;2.70;;;26.00;99.90;;;;;;5003389;28;20068;-74
2023/09/05 11:38:12;;;;;;;5.72;2.80;;;26.20;99.90;;;;;;5002293;28;20128;-73
2023/09/05 11:40:40;;;;;;;5.85;2.70;;;26.40;99.90;;;;;;5003506;28;20125;-75
2023/09/05 11:43:08;;;;;;;5.47;3.30;;;26.60;99.90;;;;;;5001969;28;20495;-81
2023/09/05 11:45:35;;;;;;;8.18;2.90;;;26.80;99.90;;;;;;5003238;28;20034;-75
2023/09/05 11:48:12;;;;;;;5.22;2.55;;;26.90;99.90;;;;;;5002562;28;20038;-77
2023/09/05 11:50:43;;;;;;;8.05;3.10;;;27.00;99.90;;;;;;5002583;28;20014;-76
2023/09/05 11:53:12;;;;;;;7.57;2.78;;;27.20;99.90;;;;;;5018461;28;20038;-75
2023/09/05 11:55:39;;;;;;;6.47;3.38;;;27.30;99.90;;;;;;5000640;28;20030;-77
2023/09/05 11:58:07;;;;;;;8.13;3.20;;;27.40;99.90;;;;;;5000034;28;20164;-75
2023/09/05 12:00:40;;;;;;;7.35;2.58;;;27.60;99.90;;;;;;5002959;28;20042;-77
2023/09/05 12:03:08;;;;;;;10.05;3.35;;;27.80;99.90;;;;;;5000781;28;20041;-76
2023/09/05 12:05:36;;;;;;;5.75;2.85;;;27.90;99.90;;;;;;5001326;28;20034;-74
2023/09/05 12:08:05;;;;;;;5.93;3.10;;;28.00;99.90;;;;;;5002204;28;20472;-76
2023/09/05 12:10:51;;;;;;;5.63;2.22;;;28.20;99.90;;;;;;5003237;28;20026;-75
2023/09/05 12:13:34;;;;;;;6.80;2.70;;;28.40;99.90;;;;;;5001677;28;20502;-73
2023/09/05 12:16:00;;;;;;;5.85;3.10;;;28.70;99.90;;;;;;5003438;28;20025;-76
2023/09/05 12:18:27;;;;;;;3.80;2.10;;;28.80;99.90;;;;;;5002166;28;20022;-76
2023/09/05 12:20:57;;;;;;;5.45;2.42;;;29.00;99.90;;;;;;5001966;28;20038;-78
2023/09/05 12:23:27;;;;;;;3.55;2.60;;;29.10;99.90;;;;;;4998025;28;20061;-81
2023/09/05 12:25:54;;;;;;;2.97;2.30;;;29.20;99.90;;;;;;4997868;28;20061;-80
2023/09/05 12:28:21;;;;;;;6.43;2.30;;;29.30;99.90;;;;;;5008199;28;20057;-74
2023/09/05 12:30:48;;;;;;;3.63;2.30;;;29.30;99.90;;;;;;5000779;28;20520;-77
2023/09/05 12:33:14;;;;;;;6.53;2.60;;;29.40;99.90;;;;;;5002771;28;20041;-77
2023/09/05 12:35:40;;;;;;;5.45;2.60;;;29.50;99.90;;;;;;5000585;28;20072;-75
2023/09/05 12:38:12;;;;;;;3.97;2.33;;;29.50;99.90;;;;;;4998884;28;20026;-76